createdAt,value
2019-03-21T00:00:00.333Z,54.52
2019-03-21T00:02:34.914Z,54.74
2019-03-21T00:05:10.541Z,54.81
2019-03-21T00:07:45.905Z,54.85
2019-03-21T00:11:18.151Z,55.02
2019-03-21T00:14:07.042Z,55.09
2019-03-21T00:16:39.505Z,55.05
2019-03-21T00:19:14.694Z,55.04
2019-03-21T00:21:49.489Z,55.37
2019-03-21T00:24:26.392Z,55.47
2019-03-21T00:27:01.046Z,55.73
2019-03-21T00:29:37.832Z,55.79
2019-03-21T00:32:14.219Z,55.91
2019-03-21T00:34:48.857Z,56.10
2019-03-21T00:37:23.372Z,56.31
2019-03-21T00:40:05.770Z,56.39
2019-03-21T00:42:40.360Z,56.51
2019-03-21T00:45:16.567Z,56.68
2019-03-21T00:47:51.551Z,56.65
2019-03-21T00:50:27.259Z,56.68
2019-03-21T00:53:02.006Z,56.92
2019-03-21T00:55:38.183Z,56.94
2019-03-21T00:58:13.530Z,56.98
2019-03-21T01:00:51.909Z,57.22
2019-03-21T01:03:26.664Z,56.98
2019-03-21T01:06:01.988Z,57.40
2019-03-21T01:08:39.272Z,57.49
2019-03-21T01:11:14.340Z,57.85
2019-03-21T01:13:49.620Z,57.76
2019-03-21T01:16:25.781Z,58.02
2019-03-21T01:19:00.790Z,58.18
2019-03-21T01:21:35.331Z,58.42
2019-03-21T01:24:10.232Z,58.61
2019-03-21T01:26:45.023Z,58.49
2019-03-21T01:29:19.563Z,58.51
2019-03-21T01:31:54.883Z,58.68
2019-03-21T01:34:30.338Z,58.79
2019-03-21T01:37:05.416Z,59.00
2019-03-21T01:39:40.637Z,59.06
2019-03-21T01:42:15.513Z,59.13
2019-03-21T01:44:50.216Z,59.44
2019-03-21T01:47:25.175Z,59.51
2019-03-21T01:49:59.705Z,59.60
2019-03-21T01:52:35.172Z,59.88
2019-03-21T01:55:11.501Z,59.99
2019-03-21T01:57:47.352Z,59.86
2019-03-21T02:00:29.133Z,60.06
2019-03-21T02:03:04.364Z,60.39
2019-03-21T02:05:39.266Z,60.35
2019-03-21T02:08:14.173Z,60.56
2019-03-21T02:10:49.176Z,60.73
2019-03-21T02:13:23.709Z,60.80
2019-03-21T02:16:00.063Z,60.90
2019-03-21T02:18:36.002Z,61.19
2019-03-21T02:21:10.504Z,61.41
2019-03-21T02:23:45.038Z,61.38
2019-03-21T02:26:21.456Z,61.68
2019-03-21T02:28:57.332Z,61.79
2019-03-21T02:31:31.898Z,62.01
2019-03-21T02:34:07.468Z,62.65
2019-03-21T02:36:47.083Z,52.06
2019-03-21T02:39:22.453Z,46.85
2019-03-21T02:41:59.070Z,48.71
2019-03-21T02:44:34.643Z,50.35
2019-03-21T02:47:10.523Z,51.48
2019-03-21T02:49:45.711Z,52.44
2019-03-21T02:52:22.705Z,53.20
2019-03-21T02:54:58.808Z,54.02
2019-03-21T02:57:33.408Z,54.57
2019-03-21T03:00:17.154Z,55.28
2019-03-21T03:02:53.305Z,56.01
2019-03-21T03:05:30.826Z,56.48
2019-03-21T03:08:05.817Z,56.93
2019-03-21T03:10:47.990Z,57.50
2019-03-21T03:13:22.636Z,57.93
2019-03-21T03:15:57.186Z,58.50
2019-03-21T03:18:32.572Z,58.93
2019-03-21T03:21:07.428Z,59.31
2019-03-21T03:23:42.443Z,59.65
2019-03-21T03:26:16.871Z,60.12
2019-03-21T03:28:51.291Z,60.37
2019-03-21T03:31:25.895Z,60.92
2019-03-21T03:34:11.323Z,61.20
2019-03-21T03:36:45.800Z,61.49
2019-03-21T05:20:17.443Z,58.17
2019-03-21T05:34:20.240Z,61.02
2019-03-21T05:36:57.318Z,61.71
2019-03-21T05:39:32.166Z,62.06
2019-03-21T05:42:19.412Z,62.39
2019-03-21T05:44:57.792Z,51.23
2019-03-21T05:47:54.348Z,47.00
2019-03-21T05:50:39.677Z,49.29
2019-03-21T05:53:15.939Z,51.18
2019-03-21T05:55:50.455Z,52.57
2019-03-21T05:58:28.406Z,53.64
2019-03-21T06:01:03.464Z,54.67
2019-03-21T06:03:50.700Z,55.51
2019-03-21T06:07:30.491Z,56.50
2019-03-21T06:10:06.895Z,57.25
2019-03-21T06:12:51.834Z,57.99
2019-03-21T06:15:30.949Z,58.76
2019-03-21T06:19:03.273Z,59.55
2019-03-21T06:22:17.175Z,60.18
2019-03-21T06:25:32.196Z,60.89
2019-03-21T06:28:06.584Z,61.07
2019-03-21T06:30:40.961Z,62.16
2019-03-21T06:33:15.474Z,62.55
2019-03-21T06:35:49.992Z,51.83
2019-03-21T06:38:27.432Z,46.88
2019-03-21T06:41:01.766Z,49.55
2019-03-21T06:43:36.262Z,51.30
2019-03-21T06:46:10.595Z,52.90
2019-03-21T06:48:44.964Z,53.99
2019-03-21T06:51:19.279Z,55.21
2019-03-21T06:53:53.615Z,56.19
2019-03-21T06:56:28.063Z,56.86
2019-03-21T06:59:02.500Z,57.69
2019-03-21T07:01:36.933Z,58.54
2019-03-21T07:04:11.385Z,59.15
2019-03-21T07:06:46.849Z,59.92
2019-03-21T07:09:21.214Z,60.78
2019-03-21T07:11:55.524Z,61.52
2019-03-21T07:14:29.916Z,61.94
2019-03-21T07:17:04.654Z,60.97
2019-03-21T07:19:39.072Z,51.39
2019-03-21T07:22:13.514Z,51.40
2019-03-21T07:24:47.870Z,53.10
2019-03-21T07:27:22.304Z,54.68
2019-03-21T07:29:57.162Z,55.83
2019-03-21T07:32:33.560Z,57.17
2019-03-21T07:35:08.470Z,57.81
2019-03-21T07:37:43.053Z,58.71
2019-03-21T07:40:17.452Z,59.54
2019-03-21T07:42:51.777Z,60.25
2019-03-21T07:45:26.082Z,61.00
2019-03-21T07:48:00.404Z,61.65
2019-03-21T07:50:34.753Z,61.96
2019-03-21T07:53:09.075Z,62.37
2019-03-21T07:55:43.517Z,62.13
2019-03-21T07:58:18.044Z,50.39
2019-03-21T08:00:53.618Z,51.42
2019-03-21T08:03:27.894Z,53.37
2019-03-21T08:06:02.235Z,54.87
2019-03-21T08:08:36.525Z,55.97
2019-03-21T08:11:10.844Z,56.83
2019-03-21T08:13:45.213Z,57.83
2019-03-21T08:16:19.644Z,58.53
2019-03-21T08:18:53.983Z,59.04
2019-03-21T08:21:28.349Z,59.79
2019-03-21T08:24:02.688Z,60.27
2019-03-21T08:26:36.953Z,60.97
2019-03-21T08:29:11.289Z,61.22
2019-03-21T08:31:46.047Z,64.93
2019-03-21T08:34:20.367Z,60.25
2019-03-21T08:36:54.840Z,53.03
2019-03-21T08:39:31.504Z,53.85
2019-03-21T08:42:05.943Z,55.48
2019-03-21T08:44:40.266Z,56.56
2019-03-21T08:47:14.731Z,57.16
2019-03-21T08:49:49.100Z,57.80
2019-03-21T08:52:23.490Z,58.56
2019-03-21T08:54:57.827Z,58.68
2019-03-21T08:57:32.131Z,59.18
2019-03-21T09:00:06.514Z,59.96
2019-03-21T09:02:40.829Z,60.28
2019-03-21T09:05:16.708Z,60.52
2019-03-21T09:07:51.339Z,60.70
2019-03-21T09:10:26.625Z,61.01
2019-03-21T09:13:01.973Z,61.17
2019-03-21T09:15:37.339Z,61.22
2019-03-21T09:18:12.752Z,61.71
2019-03-21T09:20:47.355Z,62.31
2019-03-21T09:23:26.788Z,59.34
2019-03-21T09:26:04.299Z,52.31
2019-03-21T09:28:38.728Z,53.89
2019-03-21T09:31:13.108Z,54.84
2019-03-21T09:33:47.480Z,55.85
2019-03-21T09:36:22.425Z,56.15
2019-03-21T09:38:57.366Z,56.81
2019-03-21T09:41:32.197Z,57.52
2019-03-21T09:44:08.598Z,57.13
2019-03-21T09:46:50.758Z,57.10
2019-03-21T09:49:19.041Z,57.99
2019-03-21T09:51:53.331Z,57.58
2019-03-21T09:54:29.735Z,57.77
2019-03-21T09:57:04.092Z,58.36
2019-03-21T09:59:38.984Z,58.72
2019-03-21T10:02:13.279Z,59.13
2019-03-21T10:04:47.634Z,58.75
2019-03-21T10:07:21.933Z,58.34
2019-03-21T10:09:56.274Z,58.58
2019-03-21T10:12:30.684Z,58.64
2019-03-21T10:15:05.032Z,58.67
2019-03-21T10:17:39.312Z,58.81
2019-03-21T10:20:13.742Z,58.72
2019-03-21T10:22:49.081Z,58.94
2019-03-21T10:25:23.381Z,59.57
2019-03-21T10:27:57.795Z,59.15
2019-03-21T10:30:40.302Z,58.97
2019-03-21T10:33:16.083Z,58.63
2019-03-21T10:35:50.471Z,58.84
2019-03-21T10:38:24.844Z,58.20
2019-03-21T10:41:23.828Z,58.08
2019-03-21T10:43:58.241Z,57.76
2019-03-21T10:46:32.587Z,57.50
2019-03-21T10:49:06.812Z,57.55
2019-03-21T10:51:41.121Z,57.60
2019-03-21T10:54:15.519Z,57.55
2019-03-21T10:56:49.813Z,57.45
2019-03-21T10:59:24.214Z,57.99
2019-03-21T11:02:06.810Z,57.66
2019-03-21T11:04:34.505Z,57.92
2019-03-21T11:07:05.307Z,58.51
2019-03-21T11:09:42.028Z,58.04
2019-03-21T11:12:16.336Z,57.38
2019-03-21T11:14:50.665Z,57.45
2019-03-21T11:17:25.020Z,57.03
2019-03-21T11:19:59.367Z,57.05
2019-03-21T11:22:33.985Z,56.53
2019-03-21T11:25:08.774Z,56.28
2019-03-21T11:27:44.262Z,56.62
2019-03-21T11:30:25.886Z,56.55
2019-03-21T11:33:00.279Z,56.69
2019-03-21T11:35:34.694Z,56.77
2019-03-21T11:38:09.237Z,56.88
2019-03-21T11:40:43.701Z,56.23
2019-03-21T11:43:20.004Z,55.43
2019-03-21T11:45:55.399Z,55.21
2019-03-21T11:48:29.991Z,55.57
2019-03-21T11:51:05.300Z,55.59
2019-03-21T11:53:39.785Z,55.44
2019-03-21T11:56:14.292Z,56.13
2019-03-21T11:58:48.573Z,56.23
2019-03-21T12:01:25.648Z,55.63
2019-03-21T12:03:59.947Z,56.21
2019-03-21T12:06:34.450Z,56.09
2019-03-21T12:09:10.520Z,55.78
2019-03-21T12:11:44.879Z,56.30
2019-03-21T12:14:19.194Z,56.47
2019-03-21T12:16:53.614Z,56.45
2019-03-21T12:19:28.064Z,57.16
2019-03-21T12:22:02.384Z,56.63
2019-03-21T12:24:37.002Z,56.84
2019-03-21T12:27:11.350Z,56.69
2019-03-21T12:29:46.166Z,56.43
2019-03-21T12:32:21.049Z,56.36
2019-03-21T12:34:56.352Z,56.00
2019-03-21T12:37:31.177Z,55.95
2019-03-21T12:40:06.260Z,56.31
2019-03-21T12:42:40.610Z,56.75
2019-03-21T12:45:15.029Z,56.95
2019-03-21T12:47:49.338Z,56.81
2019-03-21T12:50:23.727Z,56.82
2019-03-21T12:52:57.905Z,57.15
2019-03-21T12:55:31.956Z,57.65
2019-03-21T12:58:06.646Z,58.08
2019-03-21T13:00:45.563Z,57.86
2019-03-21T13:03:19.624Z,57.97
2019-03-21T13:05:53.699Z,57.96
2019-03-21T13:08:33.650Z,58.25
2019-03-21T13:11:05.197Z,58.35
2019-03-21T13:13:40.319Z,58.40
2019-03-21T13:16:14.358Z,58.53
2019-03-21T13:18:48.442Z,58.63
2019-03-21T13:21:22.531Z,58.62
2019-03-21T13:23:56.679Z,58.86
2019-03-21T13:26:31.505Z,58.90
2019-03-21T13:29:27.248Z,58.84
2019-03-21T13:32:47.640Z,58.84
2019-03-21T13:35:48.595Z,59.29
2019-03-21T13:38:34.548Z,59.44
2019-03-21T13:41:23.128Z,59.64
2019-03-21T13:44:04.501Z,59.60
2019-03-21T13:46:42.824Z,59.67
2019-03-21T13:49:40.674Z,59.71
2019-03-21T13:52:20.201Z,59.74
2019-03-21T13:54:56.404Z,59.69
2019-03-21T13:57:31.107Z,59.86
2019-03-21T14:00:07.650Z,60.02
2019-03-21T14:02:41.888Z,60.04
2019-03-21T14:05:16.692Z,60.37
2019-03-21T14:07:50.733Z,60.49
2019-03-21T14:10:24.826Z,60.34
2019-03-21T14:12:58.919Z,60.61
2019-03-21T14:15:33.117Z,60.53
2019-03-21T14:18:07.248Z,60.66
2019-03-21T14:20:41.414Z,60.81
2019-03-21T14:23:17.610Z,61.09
2019-03-21T14:25:51.887Z,60.64
2019-03-21T14:28:26.260Z,60.53
2019-03-21T14:31:02.055Z,60.62
2019-03-21T14:33:36.226Z,60.81
2019-03-21T14:36:10.352Z,60.91
2019-03-21T14:47:02.361Z,61.10
2019-03-21T14:54:38.171Z,61.43
2019-03-21T14:57:13.087Z,61.78
2019-03-21T14:59:55.038Z,61.93
2019-03-21T15:02:50.823Z,61.92
2019-03-21T15:05:27.771Z,62.11
2019-03-21T15:08:02.930Z,62.22
2019-03-21T15:10:38.597Z,62.36
2019-03-21T15:13:13.192Z,61.19
2019-03-21T15:15:53.171Z,50.42
2019-03-21T15:18:28.912Z,47.32
2019-03-21T15:21:08.199Z,49.22
2019-03-21T15:23:45.026Z,50.89
2019-03-21T15:26:22.174Z,52.32
2019-03-21T15:29:00.235Z,53.15
2019-03-21T15:31:37.915Z,54.17
2019-03-21T15:34:15.708Z,54.87
2019-03-21T15:36:54.365Z,55.59
2019-03-21T15:39:32.204Z,56.41
2019-03-21T15:42:09.271Z,57.02
2019-03-21T15:44:45.473Z,57.58
2019-03-21T15:47:19.476Z,58.13
2019-03-21T15:49:53.570Z,58.46
2019-03-21T15:52:27.581Z,58.98
2019-03-21T15:55:02.005Z,59.18
2019-03-21T15:57:36.018Z,59.63
2019-03-21T16:00:11.721Z,59.92
2019-03-21T16:02:46.568Z,60.22
2019-03-21T16:05:20.713Z,60.68
2019-03-21T16:07:54.789Z,60.99
2019-03-21T16:10:28.844Z,61.30
2019-03-21T16:13:02.987Z,61.46
2019-03-21T16:15:37.076Z,61.92
2019-03-21T16:18:11.307Z,62.41
2019-03-21T16:20:45.733Z,61.29
2019-03-21T16:23:19.829Z,49.58
2019-03-21T16:25:54.761Z,46.53
2019-03-21T16:28:28.874Z,48.78
2019-03-21T16:31:02.914Z,50.82
2019-03-21T16:33:37.072Z,52.11
2019-03-21T16:36:11.072Z,53.07
2019-03-21T16:38:46.146Z,53.98
2019-03-21T16:41:20.250Z,54.80
2019-03-21T16:44:02.139Z,55.53
2019-03-21T16:46:36.559Z,56.43
2019-03-21T16:49:10.772Z,57.07
2019-03-21T16:51:44.979Z,57.49
2019-03-21T16:54:19.402Z,58.22
2019-03-21T16:56:53.503Z,58.81
2019-03-21T16:59:27.553Z,59.21
2019-03-21T17:02:01.611Z,59.52
2019-03-21T17:04:36.436Z,60.25
2019-03-21T17:07:13.596Z,60.82
2019-03-21T17:09:49.119Z,61.24
2019-03-21T17:12:23.243Z,61.71
2019-03-21T17:14:58.509Z,62.14
2019-03-21T17:17:32.577Z,61.64
2019-03-21T17:20:07.071Z,51.23
2019-03-21T17:22:41.162Z,48.07
2019-03-21T17:25:15.189Z,50.17
2019-03-21T17:27:49.623Z,52.03
2019-03-21T17:30:23.916Z,53.43
2019-03-21T17:32:57.995Z,54.54
2019-03-21T17:35:32.048Z,55.49
2019-03-21T17:38:07.168Z,56.39
2019-03-21T17:40:41.413Z,57.18
2019-03-21T17:43:15.847Z,57.98
2019-03-21T17:45:49.948Z,58.69
2019-03-21T17:48:24.163Z,59.45
2019-03-21T17:50:58.471Z,60.03
2019-03-21T17:53:42.014Z,60.44
2019-03-21T17:56:16.188Z,61.10
2019-03-21T17:58:50.335Z,61.53
2019-03-21T18:01:24.434Z,62.08
2019-03-21T18:03:58.529Z,61.50
2019-03-21T18:06:32.557Z,50.20
2019-03-21T18:09:08.380Z,46.75
2019-03-21T18:11:42.468Z,49.17
2019-03-21T18:14:18.097Z,51.80
2019-03-21T18:16:52.295Z,53.19
2019-03-21T18:19:26.372Z,54.41
2019-03-21T18:22:01.841Z,55.15
2019-03-21T18:24:36.084Z,56.11
2019-03-21T18:27:10.203Z,57.02
2019-03-21T18:30:15.882Z,57.76
2019-03-21T18:32:50.339Z,58.54
2019-03-21T18:35:24.436Z,59.44
2019-03-21T18:37:58.633Z,60.19
2019-03-21T18:40:32.834Z,60.75
2019-03-21T18:43:07.067Z,60.98
2019-03-21T18:45:41.581Z,61.97
2019-03-21T18:48:16.396Z,62.34
2019-03-21T18:50:50.632Z,61.64
2019-03-21T18:53:25.034Z,50.03
2019-03-21T18:56:00.195Z,46.97
2019-03-21T18:58:34.340Z,49.33
2019-03-21T19:01:08.591Z,51.78
2019-03-21T19:03:43.320Z,53.42
2019-03-21T19:06:17.449Z,54.62
2019-03-21T19:08:51.670Z,55.74
2019-03-21T19:11:26.123Z,56.76
2019-03-21T19:14:00.260Z,57.70
2019-03-21T19:16:34.440Z,58.55
2019-03-21T19:19:08.570Z,59.39
2019-03-21T19:21:42.795Z,60.19
2019-03-21T19:24:16.923Z,60.82
2019-03-21T19:26:51.136Z,61.48
2019-03-21T19:29:25.258Z,62.07
2019-03-21T19:31:59.555Z,61.74
2019-03-21T19:34:34.047Z,50.85
2019-03-21T19:37:08.245Z,47.87
2019-03-21T19:39:42.417Z,50.42
2019-03-21T19:42:16.665Z,52.49
2019-03-21T19:44:50.774Z,54.06
2019-03-21T19:47:30.199Z,55.36
2019-03-21T19:50:10.148Z,56.30
2019-03-21T19:52:49.046Z,57.18
2019-03-21T19:55:30.690Z,58.13
2019-03-21T19:57:58.998Z,59.07
2019-03-21T20:00:33.220Z,59.87
2019-03-21T20:03:07.441Z,60.69
2019-03-21T20:05:43.050Z,61.36
2019-03-21T20:08:17.349Z,62.10
2019-03-21T20:10:51.615Z,61.73
2019-03-21T20:13:25.991Z,50.87
2019-03-21T20:16:00.430Z,47.55
2019-03-21T20:18:36.132Z,50.07
2019-03-21T20:21:10.453Z,52.46
2019-03-21T20:23:45.346Z,53.92
2019-03-21T20:26:19.889Z,54.99
2019-03-21T20:28:53.940Z,56.07
2019-03-21T20:31:28.077Z,56.98
2019-03-21T20:34:02.246Z,57.91
2019-03-21T20:36:36.357Z,58.80
2019-03-21T20:39:11.303Z,59.57
2019-03-21T20:41:45.325Z,60.27
2019-03-21T20:44:41.162Z,60.95
2019-03-21T20:47:20.405Z,61.67
2019-03-21T20:49:54.534Z,62.42
2019-03-21T20:52:28.797Z,61.27
2019-03-21T20:55:03.446Z,50.26
2019-03-21T20:57:37.605Z,47.50
2019-03-21T21:00:18.350Z,49.88
2019-03-21T21:02:53.556Z,52.35
2019-03-21T21:05:27.773Z,54.11
2019-03-21T21:08:01.948Z,55.36
2019-03-21T21:10:38.425Z,56.51
2019-03-21T21:13:16.370Z,57.61
2019-03-21T21:15:50.885Z,58.33
2019-03-21T21:18:25.049Z,59.46
2019-03-21T21:20:59.355Z,60.19
2019-03-21T21:23:33.592Z,60.99
2019-03-21T21:26:08.427Z,61.83
2019-03-21T21:28:43.090Z,62.41
2019-03-21T21:31:17.655Z,61.79
2019-03-21T21:33:51.916Z,50.45
2019-03-21T21:36:26.160Z,46.91
2019-03-21T21:39:00.494Z,49.66
2019-03-21T21:41:35.030Z,52.12
2019-03-21T21:44:09.273Z,53.88
2019-03-21T21:46:43.495Z,55.26
2019-03-21T21:49:18.267Z,56.46
2019-03-21T21:51:52.398Z,57.42
2019-03-21T21:54:26.779Z,58.50
2019-03-21T21:57:01.315Z,59.48
2019-03-21T21:59:35.303Z,60.14
2019-03-21T22:02:09.314Z,61.01
2019-03-21T22:04:43.298Z,61.72
2019-03-21T22:07:17.582Z,62.46
2019-03-21T22:09:51.568Z,61.30
2019-03-21T22:12:25.479Z,50.07
2019-03-21T22:14:59.416Z,46.59
2019-03-21T22:17:33.401Z,49.56
2019-03-21T22:20:08.172Z,52.06
2019-03-21T22:22:42.143Z,53.68
2019-03-21T22:25:19.487Z,55.00
2019-03-21T22:27:56.236Z,56.36
2019-03-21T22:30:30.107Z,57.40
2019-03-21T22:33:04.131Z,58.40
2019-03-21T22:35:38.119Z,59.31
2019-03-21T22:38:12.126Z,60.00
2019-03-21T22:40:46.071Z,60.99
2019-03-21T22:43:20.110Z,61.88
2019-03-21T22:45:54.106Z,62.73
2019-03-21T22:48:28.090Z,61.92
2019-03-21T22:51:02.038Z,51.05
2019-03-21T22:53:36.075Z,48.02
2019-03-21T22:56:10.037Z,50.70
2019-03-21T22:58:44.023Z,52.88
2019-03-21T23:01:18.420Z,54.61
2019-03-21T23:03:52.356Z,55.91
2019-03-21T23:06:26.298Z,57.25
2019-03-21T23:09:00.210Z,58.12
2019-03-21T23:11:34.160Z,59.20
2019-03-21T23:14:08.179Z,60.08
2019-03-21T23:16:42.144Z,60.89
2019-03-21T23:19:16.183Z,61.73
2019-03-21T23:21:51.145Z,62.66
2019-03-21T23:24:25.147Z,61.99
2019-03-21T23:26:59.189Z,50.85
2019-03-21T23:29:33.197Z,47.87
2019-03-21T23:32:07.147Z,50.36
2019-03-21T23:34:41.063Z,52.88
2019-03-21T23:37:16.038Z,54.63
2019-03-21T23:39:50.038Z,55.96
2019-03-21T23:42:24.130Z,57.25
2019-03-21T23:44:58.122Z,58.26
2019-03-21T23:47:32.076Z,59.36
2019-03-21T23:50:06.351Z,60.29
2019-03-21T23:52:40.305Z,60.98
2019-03-21T23:55:14.299Z,61.91
2019-03-21T23:57:48.762Z,61.51
